sensor_id;sensor_type;location;lat;lon;timestamp;temperature;humidity
29353;DHT22;16344;50.364;8.944;2023-02-28T00:00:17;2.20;99.90
29353;DHT22;16344;50.364;8.944;2023-02-28T00:02:44;2.10;99.90
29353;DHT22;16344;50.364;8.944;2023-02-28T00:05:11;2.00;99.90
29353;DHT22;16344;50.364;8.944;2023-02-28T00:07:37;2.00;99.90
29353;DHT22;16344;50.364;8.944;2023-02-28T00:10:04;2.00;99.90
29353;DHT22;16344;50.364;8.944;2023-02-28T00:12:32;2.00;99.90
29353;DHT22;16344;50.364;8.944;2023-02-28T00:14:57;1.90;99.90
29353;DHT22;16344;50.364;8.944;2023-02-28T00:17:23;1.80;99.90
29353;DHT22;16344;50.364;8.944;2023-02-28T00:19:49;1.70;99.90
29353;DHT22;16344;50.364;8.944;2023-02-28T00:22:16;1.70;99.90
29353;DHT22;16344;50.364;8.944;2023-02-28T00:24:42;1.60;99.90
29353;DHT22;16344;50.364;8.944;2023-02-28T00:27:07;1.60;99.90
29353;DHT22;16344;50.364;8.944;2023-02-28T00:29:33;1.70;99.90
29353;DHT22;16344;50.364;8.944;2023-02-28T00:31:58;1.70;99.90
29353;DHT22;16344;50.364;8.944;2023-02-28T00:34:24;1.70;99.90
29353;DHT22;16344;50.364;8.944;2023-02-28T00:36:49;1.70;99.90
29353;DHT22;16344;50.364;8.944;2023-02-28T00:39:15;1.60;99.90
29353;DHT22;16344;50.364;8.944;2023-02-28T00:41:41;1.60;99.90
29353;DHT22;16344;50.364;8.944;2023-02-28T00:44:07;1.60;99.90
29353;DHT22;16344;50.364;8.944;2023-02-28T00:46:32;1.60;99.90
29353;DHT22;16344;50.364;8.944;2023-02-28T00:48:58;1.50;99.90
29353;DHT22;16344;50.364;8.944;2023-02-28T00:51:23;1.50;99.90
29353;DHT22;16344;50.364;8.944;2023-02-28T00:53:49;1.40;99.90
29353;DHT22;16344;50.364;8.944;2023-02-28T00:56:14;1.40;99.90
29353;DHT22;16344;50.364;8.944;2023-02-28T00:58:40;1.40;99.90
29353;DHT22;16344;50.364;8.944;2023-02-28T01:01:06;1.50;99.90
29353;DHT22;16344;50.364;8.944;2023-02-28T01:03:31;1.50;99.90
29353;DHT22;16344;50.364;8.944;2023-02-28T01:05:57;1.50;99.90
29353;DHT22;16344;50.364;8.944;2023-02-28T01:08:23;1.40;99.90
29353;DHT22;16344;50.364;8.944;2023-02-28T01:10:48;1.40;99.90
29353;DHT22;16344;50.364;8.944;2023-02-28T01:13:15;1.30;99.90
29353;DHT22;16344;50.364;8.944;2023-02-28T01:15:46;1.30;99.90
29353;DHT22;16344;50.364;8.944;2023-02-28T01:18:14;1.20;99.90
29353;DHT22;16344;50.364;8.944;2023-02-28T01:20:39;1.20;99.90
29353;DHT22;16344;50.364;8.944;2023-02-28T01:23:05;1.20;99.90
29353;DHT22;16344;50.364;8.944;2023-02-28T01:25:30;1.20;99.90
29353;DHT22;16344;50.364;8.944;2023-02-28T01:27:56;1.10;99.90
29353;DHT22;16344;50.364;8.944;2023-02-28T01:30:21;1.10;99.90
29353;DHT22;16344;50.364;8.944;2023-02-28T01:32:47;1.10;99.90
29353;DHT22;16344;50.364;8.944;2023-02-28T01:35:12;1.10;99.90
29353;DHT22;16344;50.364;8.944;2023-02-28T01:37:38;1.10;99.90
29353;DHT22;16344;50.364;8.944;2023-02-28T01:40:04;1.00;99.90
29353;DHT22;16344;50.364;8.944;2023-02-28T01:42:30;1.00;99.90
29353;DHT22;16344;50.364;8.944;2023-02-28T01:45:06;0.90;99.90
29353;DHT22;16344;50.364;8.944;2023-02-28T01:47:42;0.90;99.90
29353;DHT22;16344;50.364;8.944;2023-02-28T01:50:14;0.90;99.90
29353;DHT22;16344;50.364;8.944;2023-02-28T01:52:40;0.80;99.90
29353;DHT22;16344;50.364;8.944;2023-02-28T01:55:07;0.80;99.90
29353;DHT22;16344;50.364;8.944;2023-02-28T01:57:38;0.80;99.90
29353;DHT22;16344;50.364;8.944;2023-02-28T02:00:13;0.90;99.90
29353;DHT22;16344;50.364;8.944;2023-02-28T02:02:42;0.70;99.90
29353;DHT22;16344;50.364;8.944;2023-02-28T02:05:22;0.70;99.90
29353;DHT22;16344;50.364;8.944;2023-02-28T02:07:54;0.80;99.90
29353;DHT22;16344;50.364;8.944;2023-02-28T02:10:27;0.80;99.90
29353;DHT22;16344;50.364;8.944;2023-02-28T02:18:53;0.70;99.90
29353;DHT22;16344;50.364;8.944;2023-02-28T02:21:46;0.80;99.90
29353;DHT22;16344;50.364;8.944;2023-02-28T02:24:40;0.70;99.90
29353;DHT22;16344;50.364;8.944;2023-02-28T02:27:25;0.70;99.90
29353;DHT22;16344;50.364;8.944;2023-02-28T02:35:53;0.50;99.90
29353;DHT22;16344;50.364;8.944;2023-02-28T02:38:32;0.60;99.90
29353;DHT22;16344;50.364;8.944;2023-02-28T02:41:26;0.40;99.90
29353;DHT22;16344;50.364;8.944;2023-02-28T02:43:58;0.50;99.90
29353;DHT22;16344;50.364;8.944;2023-02-28T02:46:31;0.40;99.90
29353;DHT22;16344;50.364;8.944;2023-02-28T02:49:00;0.40;99.90
29353;DHT22;16344;50.364;8.944;2023-02-28T02:51:26;0.30;99.90
29353;DHT22;16344;50.364;8.944;2023-02-28T02:54:08;0.30;99.90
29353;DHT22;16344;50.364;8.944;2023-02-28T02:56:35;0.30;99.90
29353;DHT22;16344;50.364;8.944;2023-02-28T02:59:03;0.20;99.90
29353;DHT22;16344;50.364;8.944;2023-02-28T03:01:31;0.20;99.90
29353;DHT22;16344;50.364;8.944;2023-02-28T03:04:00;0.20;99.90
29353;DHT22;16344;50.364;8.944;2023-02-28T03:06:26;0.20;99.90
29353;DHT22;16344;50.364;8.944;2023-02-28T03:08:52;0.20;99.90
29353;DHT22;16344;50.364;8.944;2023-02-28T03:11:18;0.30;99.90
29353;DHT22;16344;50.364;8.944;2023-02-28T03:24:40;0.10;99.90
29353;DHT22;16344;50.364;8.944;2023-02-28T03:27:23;0.10;99.90
29353;DHT22;16344;50.364;8.944;2023-02-28T03:30:06;0.10;99.90
29353;DHT22;16344;50.364;8.944;2023-02-28T03:32:55;0.10;99.90
29353;DHT22;16344;50.364;8.944;2023-02-28T03:35:29;0.00;99.90
29353;DHT22;16344;50.364;8.944;2023-02-28T03:38:20;0.00;99.90
29353;DHT22;16344;50.364;8.944;2023-02-28T03:40:50;0.10;99.90
29353;DHT22;16344;50.364;8.944;2023-02-28T03:43:22;0.10;99.90
29353;DHT22;16344;50.364;8.944;2023-02-28T03:45:51;0.10;99.90
29353;DHT22;16344;50.364;8.944;2023-02-28T03:48:35;0.10;99.90
29353;DHT22;16344;50.364;8.944;2023-02-28T03:51:03;0.10;99.90
29353;DHT22;16344;50.364;8.944;2023-02-28T03:53:36;0.00;99.90
29353;DHT22;16344;50.364;8.944;2023-02-28T03:56:13;0.10;99.90
29353;DHT22;16344;50.364;8.944;2023-02-28T03:59:00;0.20;99.90
29353;DHT22;16344;50.364;8.944;2023-02-28T04:03:59;0.20;99.90
29353;DHT22;16344;50.364;8.944;2023-02-28T04:06:25;0.10;99.90
29353;DHT22;16344;50.364;8.944;2023-02-28T04:08:51;0.10;99.90
29353;DHT22;16344;50.364;8.944;2023-02-28T04:11:22;0.20;99.90
29353;DHT22;16344;50.364;8.944;2023-02-28T04:13:47;0.30;99.90
29353;DHT22;16344;50.364;8.944;2023-02-28T04:16:14;0.30;99.90
29353;DHT22;16344;50.364;8.944;2023-02-28T04:18:40;0.20;99.90
29353;DHT22;16344;50.364;8.944;2023-02-28T04:21:06;0.20;99.90
29353;DHT22;16344;50.364;8.944;2023-02-28T04:23:32;0.30;99.90
29353;DHT22;16344;50.364;8.944;2023-02-28T04:25:58;0.20;99.90
29353;DHT22;16344;50.364;8.944;2023-02-28T04:28:23;0.30;99.90
29353;DHT22;16344;50.364;8.944;2023-02-28T04:30:55;0.20;99.90
29353;DHT22;16344;50.364;8.944;2023-02-28T04:33:20;0.20;99.90
29353;DHT22;16344;50.364;8.944;2023-02-28T04:35:46;0.30;99.90
29353;DHT22;16344;50.364;8.944;2023-02-28T04:38:11;0.30;99.90
29353;DHT22;16344;50.364;8.944;2023-02-28T04:40:37;0.20;99.90
29353;DHT22;16344;50.364;8.944;2023-02-28T04:43:02;0.30;99.90
29353;DHT22;16344;50.364;8.944;2023-02-28T04:45:28;0.40;99.90
29353;DHT22;16344;50.364;8.944;2023-02-28T04:47:57;0.30;99.90
29353;DHT22;16344;50.364;8.944;2023-02-28T04:50:23;0.30;99.90
29353;DHT22;16344;50.364;8.944;2023-02-28T04:52:48;0.20;99.90
29353;DHT22;16344;50.364;8.944;2023-02-28T04:55:14;0.20;99.90
29353;DHT22;16344;50.364;8.944;2023-02-28T04:57:39;0.10;99.90
29353;DHT22;16344;50.364;8.944;2023-02-28T05:00:08;0.10;99.90
29353;DHT22;16344;50.364;8.944;2023-02-28T05:02:37;0.10;99.90
29353;DHT22;16344;50.364;8.944;2023-02-28T05:05:03;0.00;99.90
29353;DHT22;16344;50.364;8.944;2023-02-28T05:07:28;0.00;99.90
29353;DHT22;16344;50.364;8.944;2023-02-28T05:09:54;-0.10;99.90
29353;DHT22;16344;50.364;8.944;2023-02-28T05:12:19;-0.10;99.90
29353;DHT22;16344;50.364;8.944;2023-02-28T05:14:45;-0.10;99.90
29353;DHT22;16344;50.364;8.944;2023-02-28T05:17:10;-0.10;99.90
29353;DHT22;16344;50.364;8.944;2023-02-28T05:19:36;0.00;99.90
29353;DHT22;16344;50.364;8.944;2023-02-28T05:22:01;0.00;99.90
29353;DHT22;16344;50.364;8.944;2023-02-28T05:24:27;-0.10;99.90
29353;DHT22;16344;50.364;8.944;2023-02-28T05:26:54;-0.10;99.90
29353;DHT22;16344;50.364;8.944;2023-02-28T05:29:19;0.00;99.90
29353;DHT22;16344;50.364;8.944;2023-02-28T05:31:45;0.00;99.90
29353;DHT22;16344;50.364;8.944;2023-02-28T05:34:10;0.00;99.90
29353;DHT22;16344;50.364;8.944;2023-02-28T05:36:38;0.00;99.90
29353;DHT22;16344;50.364;8.944;2023-02-28T05:39:06;0.00;99.90
29353;DHT22;16344;50.364;8.944;2023-02-28T05:41:32;0.10;99.90
29353;DHT22;16344;50.364;8.944;2023-02-28T05:43:58;0.10;99.90
29353;DHT22;16344;50.364;8.944;2023-02-28T05:46:25;1.00;1.00
29353;DHT22;16344;50.364;8.944;2023-02-28T05:48:50;1.10;57.90
29353;DHT22;16344;50.364;8.944;2023-02-28T05:51:16;1.00;7.10
29353;DHT22;16344;50.364;8.944;2023-02-28T05:53:42;0.70;27.40
29353;DHT22;16344;50.364;8.944;2023-02-28T05:56:07;0.50;83.50
29353;DHT22;16344;50.364;8.944;2023-02-28T05:58:33;0.40;99.90
29353;DHT22;16344;50.364;8.944;2023-02-28T06:01:00;0.30;99.90
29353;DHT22;16344;50.364;8.944;2023-02-28T06:03:27;0.20;99.90
29353;DHT22;16344;50.364;8.944;2023-02-28T06:05:52;0.20;99.90
29353;DHT22;16344;50.364;8.944;2023-02-28T06:08:18;0.20;99.90
29353;DHT22;16344;50.364;8.944;2023-02-28T06:10:44;0.20;99.90
29353;DHT22;16344;50.364;8.944;2023-02-28T06:13:10;0.20;99.90
29353;DHT22;16344;50.364;8.944;2023-02-28T06:15:37;0.20;99.90
29353;DHT22;16344;50.364;8.944;2023-02-28T06:18:02;0.30;99.90
29353;DHT22;16344;50.364;8.944;2023-02-28T06:20:28;0.30;99.90
29353;DHT22;16344;50.364;8.944;2023-02-28T06:22:56;0.40;99.90
29353;DHT22;16344;50.364;8.944;2023-02-28T06:25:24;0.70;99.90
29353;DHT22;16344;50.364;8.944;2023-02-28T06:27:49;1.00;18.80
29353;DHT22;16344;50.364;8.944;2023-02-28T06:30:15;1.10;1.00
29353;DHT22;16344;50.364;8.944;2023-02-28T06:32:40;1.20;1.00
29353;DHT22;16344;50.364;8.944;2023-02-28T06:35:06;1.20;1.00
29353;DHT22;16344;50.364;8.944;2023-02-28T06:37:32;1.40;1.00
29353;DHT22;16344;50.364;8.944;2023-02-28T06:39:58;2.40;1.00
29353;DHT22;16344;50.364;8.944;2023-02-28T06:42:24;3.60;1.00
29353;DHT22;16344;50.364;8.944;2023-02-28T06:44:54;4.10;1.00
29353;DHT22;16344;50.364;8.944;2023-02-28T06:47:20;4.60;1.00
29353;DHT22;16344;50.364;8.944;2023-02-28T06:49:46;5.10;1.00
29353;DHT22;16344;50.364;8.944;2023-02-28T06:52:12;5.50;1.00
29353;DHT22;16344;50.364;8.944;2023-02-28T06:54:37;6.00;1.00
29353;DHT22;16344;50.364;8.944;2023-02-28T06:57:03;6.60;1.00
29353;DHT22;16344;50.364;8.944;2023-02-28T06:59:28;6.90;1.00
29353;DHT22;16344;50.364;8.944;2023-02-28T07:01:54;7.00;1.00
29353;DHT22;16344;50.364;8.944;2023-02-28T07:04:20;7.20;1.00
29353;DHT22;16344;50.364;8.944;2023-02-28T07:06:46;7.40;1.00
29353;DHT22;16344;50.364;8.944;2023-02-28T07:09:12;7.40;1.00
29353;DHT22;16344;50.364;8.944;2023-02-28T07:11:38;7.20;1.00
29353;DHT22;16344;50.364;8.944;2023-02-28T07:14:03;7.10;1.00
29353;DHT22;16344;50.364;8.944;2023-02-28T07:16:29;6.60;1.00
29353;DHT22;16344;50.364;8.944;2023-02-28T07:18:55;6.40;1.00
29353;DHT22;16344;50.364;8.944;2023-02-28T07:21:21;6.10;1.00
29353;DHT22;16344;50.364;8.944;2023-02-28T07:23:46;5.70;1.00
29353;DHT22;16344;50.364;8.944;2023-02-28T07:26:14;5.50;1.00
29353;DHT22;16344;50.364;8.944;2023-02-28T07:28:45;5.20;1.00
29353;DHT22;16344;50.364;8.944;2023-02-28T07:31:12;5.10;1.00
29353;DHT22;16344;50.364;8.944;2023-02-28T07:33:39;4.90;1.00
29353;DHT22;16344;50.364;8.944;2023-02-28T07:36:07;5.00;1.00
29353;DHT22;16344;50.364;8.944;2023-02-28T07:38:37;4.80;1.00
29353;DHT22;16344;50.364;8.944;2023-02-28T07:41:03;4.70;1.00
29353;DHT22;16344;50.364;8.944;2023-02-28T07:43:32;4.60;1.00
29353;DHT22;16344;50.364;8.944;2023-02-28T07:46:06;4.70;1.00
29353;DHT22;16344;50.364;8.944;2023-02-28T07:48:33;4.70;1.00
29353;DHT22;16344;50.364;8.944;2023-02-28T07:50:58;4.70;1.00
29353;DHT22;16344;50.364;8.944;2023-02-28T07:53:25;4.50;1.00
29353;DHT22;16344;50.364;8.944;2023-02-28T07:55:50;4.40;1.00
29353;DHT22;16344;50.364;8.944;2023-02-28T07:58:16;4.40;1.00
29353;DHT22;16344;50.364;8.944;2023-02-28T08:00:41;4.20;1.00
29353;DHT22;16344;50.364;8.944;2023-02-28T08:03:11;4.00;1.00
29353;DHT22;16344;50.364;8.944;2023-02-28T08:05:40;3.90;1.00
29353;DHT22;16344;50.364;8.944;2023-02-28T08:08:06;3.90;1.00
29353;DHT22;16344;50.364;8.944;2023-02-28T08:10:32;3.90;1.00
29353;DHT22;16344;50.364;8.944;2023-02-28T08:12:58;3.90;1.00
29353;DHT22;16344;50.364;8.944;2023-02-28T08:15:23;3.90;1.00
29353;DHT22;16344;50.364;8.944;2023-02-28T08:17:49;3.80;1.00
29353;DHT22;16344;50.364;8.944;2023-02-28T08:20:14;3.60;1.00
29353;DHT22;16344;50.364;8.944;2023-02-28T08:22:40;3.60;1.00
29353;DHT22;16344;50.364;8.944;2023-02-28T08:25:07;3.60;1.00
29353;DHT22;16344;50.364;8.944;2023-02-28T08:27:33;3.80;1.00
29353;DHT22;16344;50.364;8.944;2023-02-28T08:29:58;3.80;1.00
29353;DHT22;16344;50.364;8.944;2023-02-28T08:32:24;3.60;1.00
29353;DHT22;16344;50.364;8.944;2023-02-28T08:34:49;3.50;1.00
29353;DHT22;16344;50.364;8.944;2023-02-28T08:37:15;3.70;1.00
29353;DHT22;16344;50.364;8.944;2023-02-28T08:39:41;3.80;1.00
29353;DHT22;16344;50.364;8.944;2023-02-28T08:42:06;3.80;1.00
29353;DHT22;16344;50.364;8.944;2023-02-28T08:44:32;3.90;1.00
29353;DHT22;16344;50.364;8.944;2023-02-28T08:46:57;3.90;1.00
29353;DHT22;16344;50.364;8.944;2023-02-28T08:49:23;3.90;1.00
29353;DHT22;16344;50.364;8.944;2023-02-28T08:51:48;3.90;1.00
29353;DHT22;16344;50.364;8.944;2023-02-28T08:54:14;4.00;1.00
29353;DHT22;16344;50.364;8.944;2023-02-28T08:56:45;4.10;1.00
29353;DHT22;16344;50.364;8.944;2023-02-28T08:59:10;4.10;1.00
29353;DHT22;16344;50.364;8.944;2023-02-28T09:01:36;4.00;1.00
29353;DHT22;16344;50.364;8.944;2023-02-28T09:04:02;3.90;1.00
29353;DHT22;16344;50.364;8.944;2023-02-28T09:06:28;3.90;1.00
29353;DHT22;16344;50.364;8.944;2023-02-28T09:08:56;3.90;1.00
29353;DHT22;16344;50.364;8.944;2023-02-28T09:11:24;3.90;1.00
29353;DHT22;16344;50.364;8.944;2023-02-28T09:13:49;4.20;1.00
29353;DHT22;16344;50.364;8.944;2023-02-28T09:16:16;4.20;1.00
29353;DHT22;16344;50.364;8.944;2023-02-28T09:18:42;4.30;1.00
29353;DHT22;16344;50.364;8.944;2023-02-28T09:21:10;4.50;1.00
29353;DHT22;16344;50.364;8.944;2023-02-28T09:23:38;4.50;1.00
29353;DHT22;16344;50.364;8.944;2023-02-28T09:26:04;4.40;1.00
29353;DHT22;16344;50.364;8.944;2023-02-28T09:28:30;4.60;1.00
29353;DHT22;16344;50.364;8.944;2023-02-28T09:30:56;4.70;1.00
29353;DHT22;16344;50.364;8.944;2023-02-28T09:33:24;4.70;1.00
29353;DHT22;16344;50.364;8.944;2023-02-28T09:35:50;4.50;1.00
29353;DHT22;16344;50.364;8.944;2023-02-28T09:38:17;4.50;1.00
29353;DHT22;16344;50.364;8.944;2023-02-28T09:40:54;4.30;1.00
29353;DHT22;16344;50.364;8.944;2023-02-28T09:43:22;4.20;1.00
29353;DHT22;16344;50.364;8.944;2023-02-28T09:45:54;4.20;1.00
29353;DHT22;16344;50.364;8.944;2023-02-28T09:48:33;4.40;1.00
29353;DHT22;16344;50.364;8.944;2023-02-28T09:54:02;4.50;1.00
29353;DHT22;16344;50.364;8.944;2023-02-28T09:56:36;4.40;1.00
29353;DHT22;16344;50.364;8.944;2023-02-28T10:10:45;4.90;1.00
29353;DHT22;16344;50.364;8.944;2023-02-28T10:13:57;4.80;1.00
29353;DHT22;16344;50.364;8.944;2023-02-28T10:16:36;4.80;1.00
29353;DHT22;16344;50.364;8.944;2023-02-28T10:19:11;4.80;1.00
29353;DHT22;16344;50.364;8.944;2023-02-28T10:21:42;5.00;1.00
29353;DHT22;16344;50.364;8.944;2023-02-28T10:24:36;4.70;1.00
29353;DHT22;16344;50.364;8.944;2023-02-28T10:29:47;4.30;1.00
29353;DHT22;16344;50.364;8.944;2023-02-28T10:32:18;4.50;1.00
29353;DHT22;16344;50.364;8.944;2023-02-28T10:34:46;4.70;1.00
29353;DHT22;16344;50.364;8.944;2023-02-28T10:37:16;5.00;1.00
29353;DHT22;16344;50.364;8.944;2023-02-28T10:39:45;5.10;1.00
29353;DHT22;16344;50.364;8.944;2023-02-28T10:42:27;5.30;1.00
29353;DHT22;16344;50.364;8.944;2023-02-28T10:45:15;5.20;1.00
29353;DHT22;16344;50.364;8.944;2023-02-28T10:47:56;4.90;1.00
29353;DHT22;16344;50.364;8.944;2023-02-28T10:55:57;4.90;1.00
29353;DHT22;16344;50.364;8.944;2023-02-28T10:58:26;5.00;1.00
29353;DHT22;16344;50.364;8.944;2023-02-28T11:00:52;5.00;1.00
29353;DHT22;16344;50.364;8.944;2023-02-28T11:03:24;5.00;1.00
29353;DHT22;16344;50.364;8.944;2023-02-28T11:05:50;5.20;1.00
29353;DHT22;16344;50.364;8.944;2023-02-28T11:08:17;5.30;1.00
29353;DHT22;16344;50.364;8.944;2023-02-28T11:10:57;5.40;1.00
29353;DHT22;16344;50.364;8.944;2023-02-28T11:13:42;5.50;1.00
29353;DHT22;16344;50.364;8.944;2023-02-28T11:16:11;5.50;1.00
29353;DHT22;16344;50.364;8.944;2023-02-28T11:18:52;5.50;1.00
29353;DHT22;16344;50.364;8.944;2023-02-28T11:21:22;5.30;1.00
29353;DHT22;16344;50.364;8.944;2023-02-28T11:23:51;5.10;1.00
29353;DHT22;16344;50.364;8.944;2023-02-28T11:26:38;5.10;1.00
29353;DHT22;16344;50.364;8.944;2023-02-28T11:29:26;5.20;1.00
29353;DHT22;16344;50.364;8.944;2023-02-28T11:34:29;4.90;1.00
29353;DHT22;16344;50.364;8.944;2023-02-28T11:36:57;4.60;1.00
29353;DHT22;16344;50.364;8.944;2023-02-28T11:39:23;4.60;1.00
29353;DHT22;16344;50.364;8.944;2023-02-28T11:41:59;4.70;1.00
29353;DHT22;16344;50.364;8.944;2023-02-28T11:47:43;5.10;1.00
29353;DHT22;16344;50.364;8.944;2023-02-28T11:50:26;5.40;1.00
29353;DHT22;16344;50.364;8.944;2023-02-28T11:53:05;5.50;1.00
29353;DHT22;16344;50.364;8.944;2023-02-28T11:55:52;5.50;1.00
29353;DHT22;16344;50.364;8.944;2023-02-28T12:04:06;5.80;1.00
29353;DHT22;16344;50.364;8.944;2023-02-28T12:09:46;5.70;1.00
29353;DHT22;16344;50.364;8.944;2023-02-28T12:15:23;5.70;1.00
29353;DHT22;16344;50.364;8.944;2023-02-28T12:20:52;5.50;1.00
29353;DHT22;16344;50.364;8.944;2023-02-28T12:28:51;5.40;1.00
29353;DHT22;16344;50.364;8.944;2023-02-28T12:31:22;5.40;1.00
29353;DHT22;16344;50.364;8.944;2023-02-28T12:34:00;5.30;1.00
29353;DHT22;16344;50.364;8.944;2023-02-28T12:36:27;5.60;1.00
29353;DHT22;16344;50.364;8.944;2023-02-28T12:38:55;5.80;1.00
29353;DHT22;16344;50.364;8.944;2023-02-28T12:42:01;5.90;1.00
29353;DHT22;16344;50.364;8.944;2023-02-28T12:44:46;6.00;1.00
29353;DHT22;16344;50.364;8.944;2023-02-28T12:47:16;6.10;1.00
29353;DHT22;16344;50.364;8.944;2023-02-28T12:50:07;6.20;1.00
29353;DHT22;16344;50.364;8.944;2023-02-28T12:53:14;6.00;1.00
29353;DHT22;16344;50.364;8.944;2023-02-28T12:58:47;5.60;1.00
29353;DHT22;16344;50.364;8.944;2023-02-28T13:10:01;5.20;1.00
29353;DHT22;16344;50.364;8.944;2023-02-28T13:12:28;5.30;1.00
29353;DHT22;16344;50.364;8.944;2023-02-28T13:15:18;5.50;1.00
29353;DHT22;16344;50.364;8.944;2023-02-28T13:17:49;5.60;1.00
29353;DHT22;16344;50.364;8.944;2023-02-28T13:20:26;5.70;1.00
29353;DHT22;16344;50.364;8.944;2023-02-28T13:22:53;5.40;1.00
29353;DHT22;16344;50.364;8.944;2023-02-28T13:27:50;5.10;1.00
29353;DHT22;16344;50.364;8.944;2023-02-28T13:35:45;5.30;1.00
29353;DHT22;16344;50.364;8.944;2023-02-28T13:38:24;5.50;1.00
29353;DHT22;16344;50.364;8.944;2023-02-28T13:40:49;5.70;1.00
29353;DHT22;16344;50.364;8.944;2023-02-28T13:43:17;5.70;1.00
29353;DHT22;16344;50.364;8.944;2023-02-28T13:46:08;5.60;1.00
29353;DHT22;16344;50.364;8.944;2023-02-28T13:48:36;5.80;1.00
29353;DHT22;16344;50.364;8.944;2023-02-28T14:03:01;5.20;1.00
29353;DHT22;16344;50.364;8.944;2023-02-28T14:05:32;5.40;1.00
29353;DHT22;16344;50.364;8.944;2023-02-28T14:08:04;5.50;1.00
29353;DHT22;16344;50.364;8.944;2023-02-28T14:10:37;5.40;1.00
29353;DHT22;16344;50.364;8.944;2023-02-28T14:13:37;5.50;1.00
29353;DHT22;16344;50.364;8.944;2023-02-28T14:16:06;5.50;1.00
29353;DHT22;16344;50.364;8.944;2023-02-28T14:18:36;5.50;1.00
29353;DHT22;16344;50.364;8.944;2023-02-28T14:27:07;5.50;1.00
29353;DHT22;16344;50.364;8.944;2023-02-28T14:32:32;5.40;1.00
29353;DHT22;16344;50.364;8.944;2023-02-28T14:37:36;5.20;1.00
29353;DHT22;16344;50.364;8.944;2023-02-28T14:40:04;5.20;1.00
29353;DHT22;16344;50.364;8.944;2023-02-28T14:42:33;5.20;1.00
29353;DHT22;16344;50.364;8.944;2023-02-28T14:45:00;5.20;1.00
29353;DHT22;16344;50.364;8.944;2023-02-28T14:47:31;5.20;1.00
29353;DHT22;16344;50.364;8.944;2023-02-28T14:49:58;5.30;1.00
29353;DHT22;16344;50.364;8.944;2023-02-28T14:52:30;5.30;1.00
29353;DHT22;16344;50.364;8.944;2023-02-28T14:55:05;5.30;1.00
29353;DHT22;16344;50.364;8.944;2023-02-28T14:57:38;5.30;1.00
29353;DHT22;16344;50.364;8.944;2023-02-28T15:00:16;5.30;1.00
29353;DHT22;16344;50.364;8.944;2023-02-28T15:02:45;5.40;1.00
29353;DHT22;16344;50.364;8.944;2023-02-28T15:07:42;5.40;1.00
29353;DHT22;16344;50.364;8.944;2023-02-28T15:10:23;5.40;1.00
29353;DHT22;16344;50.364;8.944;2023-02-28T15:12:58;5.40;1.00
29353;DHT22;16344;50.364;8.944;2023-02-28T15:15:33;5.30;1.00
29353;DHT22;16344;50.364;8.944;2023-02-28T15:18:00;5.30;1.00
29353;DHT22;16344;50.364;8.944;2023-02-28T15:20:28;5.30;1.00
29353;DHT22;16344;50.364;8.944;2023-02-28T15:22:55;5.30;1.00
29353;DHT22;16344;50.364;8.944;2023-02-28T15:25:22;5.30;1.00
29353;DHT22;16344;50.364;8.944;2023-02-28T15:27:53;5.20;1.00
29353;DHT22;16344;50.364;8.944;2023-02-28T15:30:27;5.30;1.00
29353;DHT22;16344;50.364;8.944;2023-02-28T15:33:06;5.30;1.00
29353;DHT22;16344;50.364;8.944;2023-02-28T15:35:34;5.40;1.00
29353;DHT22;16344;50.364;8.944;2023-02-28T15:38:02;5.30;1.00
29353;DHT22;16344;50.364;8.944;2023-02-28T15:40:45;5.20;1.00
29353;DHT22;16344;50.364;8.944;2023-02-28T15:43:18;5.10;1.00
29353;DHT22;16344;50.364;8.944;2023-02-28T15:45:50;5.00;1.00
29353;DHT22;16344;50.364;8.944;2023-02-28T15:50:46;5.00;1.00
29353;DHT22;16344;50.364;8.944;2023-02-28T15:53:18;4.90;1.00
29353;DHT22;16344;50.364;8.944;2023-02-28T15:55:44;4.90;1.00
29353;DHT22;16344;50.364;8.944;2023-02-28T15:58:12;5.00;1.00
29353;DHT22;16344;50.364;8.944;2023-02-28T16:00:38;4.90;1.00
29353;DHT22;16344;50.364;8.944;2023-02-28T16:03:25;4.90;1.00
29353;DHT22;16344;50.364;8.944;2023-02-28T16:06:19;5.00;1.00
29353;DHT22;16344;50.364;8.944;2023-02-28T16:08:47;5.00;1.00
29353;DHT22;16344;50.364;8.944;2023-02-28T16:11:14;4.90;1.00
29353;DHT22;16344;50.364;8.944;2023-02-28T16:13:39;4.80;1.00
29353;DHT22;16344;50.364;8.944;2023-02-28T16:16:05;4.80;1.00
29353;DHT22;16344;50.364;8.944;2023-02-28T16:18:31;4.80;1.00
29353;DHT22;16344;50.364;8.944;2023-02-28T16:20:56;4.90;1.00
29353;DHT22;16344;50.364;8.944;2023-02-28T16:23:22;5.10;1.00
29353;DHT22;16344;50.364;8.944;2023-02-28T16:25:47;5.10;1.00
29353;DHT22;16344;50.364;8.944;2023-02-28T16:28:24;5.20;1.00
29353;DHT22;16344;50.364;8.944;2023-02-28T16:30:53;5.30;1.00
29353;DHT22;16344;50.364;8.944;2023-02-28T16:33:19;5.20;1.00
29353;DHT22;16344;50.364;8.944;2023-02-28T16:35:44;5.20;1.00
29353;DHT22;16344;50.364;8.944;2023-02-28T16:38:10;5.20;1.00
29353;DHT22;16344;50.364;8.944;2023-02-28T16:40:36;5.10;1.00
29353;DHT22;16344;50.364;8.944;2023-02-28T16:43:05;5.10;1.00
29353;DHT22;16344;50.364;8.944;2023-02-28T16:45:32;5.10;1.00
29353;DHT22;16344;50.364;8.944;2023-02-28T16:47:57;5.10;1.00
29353;DHT22;16344;50.364;8.944;2023-02-28T16:50:28;5.00;1.00
29353;DHT22;16344;50.364;8.944;2023-02-28T16:52:55;5.00;1.00
29353;DHT22;16344;50.364;8.944;2023-02-28T16:55:22;5.00;1.00
29353;DHT22;16344;50.364;8.944;2023-02-28T16:57:53;4.80;1.00
29353;DHT22;16344;50.364;8.944;2023-02-28T17:00:19;4.80;1.00
29353;DHT22;16344;50.364;8.944;2023-02-28T17:02:44;4.70;1.00
29353;DHT22;16344;50.364;8.944;2023-02-28T17:05:13;4.60;1.00
29353;DHT22;16344;50.364;8.944;2023-02-28T17:07:41;4.60;1.00
29353;DHT22;16344;50.364;8.944;2023-02-28T17:10:24;4.40;1.00
29353;DHT22;16344;50.364;8.944;2023-02-28T17:12:50;4.30;1.00
29353;DHT22;16344;50.364;8.944;2023-02-28T17:15:17;4.20;1.00
29353;DHT22;16344;50.364;8.944;2023-02-28T17:17:44;4.00;1.00
29353;DHT22;16344;50.364;8.944;2023-02-28T17:20:14;3.90;1.00
29353;DHT22;16344;50.364;8.944;2023-02-28T17:22:40;3.90;1.00
29353;DHT22;16344;50.364;8.944;2023-02-28T17:25:07;3.70;1.00
29353;DHT22;16344;50.364;8.944;2023-02-28T17:27:33;3.70;1.00
29353;DHT22;16344;50.364;8.944;2023-02-28T17:29:58;3.50;1.00
29353;DHT22;16344;50.364;8.944;2023-02-28T17:32:25;3.50;1.00
29353;DHT22;16344;50.364;8.944;2023-02-28T17:34:51;3.40;1.00
29353;DHT22;16344;50.364;8.944;2023-02-28T17:37:16;3.40;1.00
29353;DHT22;16344;50.364;8.944;2023-02-28T17:39:42;3.30;1.00
29353;DHT22;16344;50.364;8.944;2023-02-28T17:42:07;3.30;1.00
29353;DHT22;16344;50.364;8.944;2023-02-28T17:44:33;3.30;1.00
29353;DHT22;16344;50.364;8.944;2023-02-28T17:46:59;3.30;1.00
29353;DHT22;16344;50.364;8.944;2023-02-28T17:49:24;3.30;1.00
29353;DHT22;16344;50.364;8.944;2023-02-28T17:51:50;3.30;1.00
29353;DHT22;16344;50.364;8.944;2023-02-28T17:54:16;3.30;1.00
29353;DHT22;16344;50.364;8.944;2023-02-28T17:56:42;3.30;1.00
29353;DHT22;16344;50.364;8.944;2023-02-28T17:59:11;3.30;1.00
29353;DHT22;16344;50.364;8.944;2023-02-28T18:01:37;3.30;1.00
29353;DHT22;16344;50.364;8.944;2023-02-28T18:04:03;3.30;1.00
29353;DHT22;16344;50.364;8.944;2023-02-28T18:06:42;3.20;1.00
29353;DHT22;16344;50.364;8.944;2023-02-28T18:09:18;3.30;1.00
29353;DHT22;16344;50.364;8.944;2023-02-28T18:11:45;3.10;1.00